Date StartTime U_cm/s V_cm/s W_cm/s Ustd_cm/s Vstd_cm/s Wstd_cm/s Uvar_(cm/s)^2 Vvar_(cm/s)^2 Wvar_(cm/s)^2 KE_(m/s)^2 TurbulentKE_(m/s)^2 HorizWindSpeed_cm/s FrictionSpeec_cm/s DragCoef SpeedOfSound_m/s SonicTemperature_C Pressure_mb 
07/26/2013  00:00:00      -73.757      -48.836       10.733       55.582       29.954       27.443     3089.312      897.219      753.117        0.634        0.237       88.459       29.262        0.109      345.205       22.569      866.333
07/26/2013  00:01:00      -73.459      -37.087        3.831       43.375       29.819       20.544     1881.374      889.166      422.067        0.499        0.160       82.290       20.888        0.064      345.257       22.656      866.348
07/26/2013  00:02:00     -112.428      -17.417       -3.025       31.063       21.927       12.880      964.894      480.773      165.886        0.728        0.081      113.769       14.156        0.015      345.177       22.520      866.360
07/26/2013  00:03:00      -78.853      -28.540        4.660       44.331       32.655       20.299     1965.253     1066.369      412.061        0.525        0.172       83.859       21.079        0.063      345.124       22.431      866.369
07/26/2013  00:04:00      -71.774      -39.828        8.456       34.893       32.599       20.477     1217.555     1062.668      419.319        0.475        0.135       82.084       16.913        0.042      345.138       22.455      866.372
07/26/2013  00:05:00      -60.101      -12.170       -0.479       30.916       22.289       17.215      955.807      496.811      296.372        0.275        0.087       61.321       16.572        0.073      345.107       22.403      866.361
07/26/2013  00:06:00      -59.179      -28.081        0.016       25.804       22.931       14.110      665.826      525.851      199.082        0.284        0.070       65.504        8.293        0.016      345.155       22.483      866.352
07/26/2013  00:07:00      -47.302      -23.474       10.739       37.764       19.164       16.183     1426.098      367.256      261.897        0.248        0.103       52.806       20.585        0.152      345.169       22.505      866.345
07/26/2013  00:08:00      -63.989      -33.256       -2.820       26.522       21.723       11.926      703.436      471.910      142.228        0.326        0.066       72.115        8.753        0.015      345.155       22.483      866.347
07/26/2013  00:09:00      -82.649      -41.976        0.237       24.976       17.504       10.953      623.798      306.406      119.964        0.482        0.053       92.698        5.497        0.004      345.060       22.322      866.335
07/26/2013  00:10:00      -97.542      -47.112        2.765       30.823       20.857       15.120      950.060      435.022      228.607        0.668        0.081      108.323       14.117        0.017      345.041       22.290      866.326
07/26/2013  00:11:00     -110.265      -29.475       -0.423       24.923       20.462       17.469      621.146      418.704      305.156        0.719        0.067      114.136       11.258        0.010      344.962       22.154      866.322
07/26/2013  00:12:00      -66.114      -32.081        0.792       33.071       22.846       16.050     1093.707      521.932      257.613        0.364        0.094       73.487       16.254        0.049      344.950       22.132      866.318
07/26/2013  00:13:00      -61.552      -50.748        3.095       28.408       23.396       17.678      807.007      547.375      312.514        0.402        0.083       79.775       16.913        0.045      345.010       22.236      866.318
07/26/2013  00:14:00      -59.464      -67.685       -7.410       36.552       28.895       19.790     1336.057      834.919      391.636        0.537        0.128       90.096       11.428        0.016      345.102       22.394      866.311
07/26/2013  00:15:00      -65.990      -61.582        0.464       46.702       24.987       24.463     2181.082      624.365      598.431        0.577        0.170       90.261       25.292        0.079      345.039       22.284      866.309
07/26/2013  00:16:00      -28.901      -48.122        8.094       41.442       28.038       19.075     1717.449      786.130      363.851        0.304        0.143       56.134       10.592        0.036      345.102       22.393      866.315
07/26/2013  00:17:00      -70.368      -31.981        2.015       48.048       24.214       18.145     2308.565      586.322      329.237        0.460        0.161       77.295       16.981        0.048      345.030       22.271      866.328
07/26/2013  00:18:00       -3.358       -8.611       12.157       16.213       16.599       13.248      262.866      275.516      175.516        0.047        0.036        9.243       11.652        1.589      345.016       22.246      866.345
07/26/2013  00:19:00      -27.525      -84.915        0.219       27.287       42.978       18.491      744.567     1847.150      341.921        0.545        0.147       89.264       14.407        0.026      345.015       22.243      866.352
07/26/2013  00:20:00      -55.011      -86.592        9.921       49.495       57.973       27.942     2449.774     3360.852      780.738        0.861        0.330      102.589       31.357        0.093      344.980       22.184      866.360
07/26/2013  00:21:00      -73.253      -68.675       10.415       46.828       31.366       28.535     2192.882      983.802      814.266        0.709        0.200      100.411       21.202        0.045      344.960       22.150      866.361
07/26/2013  00:22:00      -94.876      -89.702       -1.635       58.234       53.712       33.799     3391.173     2884.962     1142.372        1.223        0.371      130.568       27.246        0.044      344.857       21.974      866.355
07/26/2013  00:23:00      -93.678      -93.131        4.212       58.791       54.101       26.503     3456.344     2926.912      702.432        1.227        0.354      132.094       25.840        0.038      344.842       21.949      866.349
07/26/2013  00:24:00      -88.367     -132.040       -0.681       61.828       59.038       44.029     3822.657     3485.440     1938.569        1.724        0.462      158.882       29.243        0.034      344.848       21.956      866.355
07/26/2013  00:25:00      -66.569     -143.346       -4.275       43.004       45.005       25.783     1849.307     2025.465      664.766        1.477        0.227      158.049       22.628        0.020      344.802       21.879      866.347
07/26/2013  00:26:00      -52.405     -100.147       -4.994       45.242       57.655       27.424     2046.840     3324.137      752.092        0.946        0.306      113.030       22.457        0.039      344.798       21.875      866.345
07/26/2013  00:27:00      -61.842      -73.901       10.319       42.566       30.865       23.661     1811.844      952.668      559.823        0.636        0.166       96.363       15.586        0.026      344.753       21.795      866.345
07/26/2013  00:28:00      -99.013     -130.500       -5.140       56.310       43.448       27.195     3170.832     1887.687      739.592        1.633        0.290      163.810       29.033        0.031      344.730       21.756      866.354
07/26/2013  00:29:00      -40.811      -71.499       13.286       39.111       45.790       39.953     1529.665     2096.686     1596.265        0.609        0.261       82.327       30.065        0.133      344.724       21.746      866.355
07/26/2013  00:30:00      -20.207      -34.072        3.730       37.399       35.294       26.095     1398.658     1245.641      680.963        0.245        0.166       39.614       19.145        0.234      344.777       21.836      866.363
07/26/2013  00:31:00      -19.110        2.953        3.073       24.328       36.052       19.537      591.849     1299.715      381.700        0.133        0.114       19.336       15.385        0.633      344.805       21.884      866.376
07/26/2013  00:32:00        5.548      -49.496       15.026       29.881       49.334       27.912      892.868     2433.858      779.075        0.341        0.205       49.806       26.432        0.282      344.831       21.927      866.399
07/26/2013  00:33:00        6.048       -9.877       40.054       25.526       40.569       23.582      651.553     1645.860      556.109        0.230        0.143       11.582       24.802        4.586      344.825       21.918      866.422
07/26/2013  00:34:00        4.182       12.481       38.620       17.342       31.395       27.251      300.759      985.664      742.639        0.185        0.101       13.163       24.400        3.436      344.771       21.825      866.433
07/26/2013  00:35:00       -6.074        7.695       21.682       18.694       14.431       16.249      349.453      208.241      264.027        0.069        0.041        9.803        7.587        0.599      344.749       21.787      866.431
07/26/2013  00:36:00       26.062      -48.436       12.987       28.362       39.797       21.781      804.404     1583.791      474.392        0.303        0.143       55.002       23.488        0.182      344.828       21.923      866.414
07/26/2013  00:37:00      -30.369       -7.581       20.009       39.309       30.237       21.116     1545.165      914.259      445.879        0.214        0.145       31.301       15.464        0.244      344.818       21.906      866.382
07/26/2013  00:38:00      -44.098      -45.679       -4.469       28.365       33.099       19.346      804.575     1095.528      374.266        0.316        0.114       63.491       16.649        0.069      344.788       21.855      866.363
07/26/2013  00:39:00      -91.249      -53.621       -1.700       42.243       46.153       34.182     1784.467     2130.120     1168.398        0.814        0.254      105.838       36.523        0.119      344.749       21.790      866.352
07/26/2013  00:40:00      -36.778      -47.380       -0.758       45.586       35.634       20.437     2078.120     1269.775      417.657        0.368        0.188       59.979       14.751        0.060      344.751       21.792      866.345
07/26/2013  00:41:00      -80.797      -72.628      -10.253       52.040       29.343       34.514     2708.147      861.041     1191.185        0.833        0.238      108.641       21.316        0.038      344.680       21.672      866.339
07/26/2013  00:42:00      -85.151      -71.535        0.131       52.578       50.010       32.476     2764.452     2501.012     1054.667        0.934        0.316      111.211       26.546        0.057      344.676       21.665      866.349
07/26/2013  00:43:00      -97.133      -85.298       -6.244       62.324       48.463       29.379     3884.223     2348.662      863.116        1.192        0.355      129.270       26.072        0.041      344.693       21.693      866.367
07/26/2013  00:44:00      -99.409      -86.774       -4.046       69.646       50.152       25.664     4850.519     2515.266      658.662        1.272        0.401      131.954       23.045        0.031      344.663       21.640      866.378
07/26/2013  00:45:00     -100.726      -87.061        0.668       64.847       38.364       30.035     4205.080     1471.828      902.114        1.215        0.329      133.137       30.101        0.051      344.659       21.634      866.373
07/26/2013  00:46:00     -134.992     -104.861       -6.439       55.870       40.285       31.962     3121.447     1622.910     1021.597        1.751        0.288      170.935       21.190        0.015      344.690       21.687      866.362
07/26/2013  00:47:00     -107.700      -61.038        0.939       60.920       40.357       32.092     3711.196     1628.712     1029.881        1.085        0.318      123.794       23.123        0.035      344.658       21.633      866.350
07/26/2013  00:48:00      -93.755      -54.739        3.413       75.514       43.203       29.106     5702.299     1866.481      847.160        1.011        0.421      108.565       33.309        0.094      344.683       21.675      866.332
07/26/2013  00:49:00     -119.068      -87.160       -1.276       85.410       35.166       23.161     7294.839     1236.627      536.450        1.542        0.453      147.560       24.444        0.027      344.716       21.732      866.311
07/26/2013  00:50:00     -113.516      -62.270       -1.811       71.074       33.618       27.240     5051.560     1130.202      742.010        1.184        0.346      129.474       28.437        0.048      344.697       21.698      866.299
07/26/2013  00:51:00      -92.951      -57.418       19.226       60.587       42.654       34.565     3670.799     1819.399     1194.748        0.949        0.334      109.255       31.879        0.085      344.698       21.701      866.285
07/26/2013  00:52:00      -83.488      -66.810        7.571       58.001       54.318       36.648     3364.171     2950.467     1343.060        0.957        0.383      106.929       32.327        0.091      344.686       21.682      866.284
07/26/2013  00:53:00      -66.347      -67.855       10.443       75.105       60.663       37.293     5640.811     3679.955     1390.764        0.991        0.536       94.901       37.381        0.155      344.663       21.640      866.294
07/26/2013  00:54:00     -142.350      -59.163      -10.733       80.268       56.366       35.128     6442.950     3177.098     1233.992        1.736        0.543      154.155       30.969        0.040      344.645       21.610      866.290
07/26/2013  00:55:00     -137.495      -74.206       -4.448       59.996       50.292       30.428     3599.486     2529.259      925.893        1.574        0.353      156.242       33.207        0.045      344.619       21.567      866.275
07/26/2013  00:56:00      -87.204      -74.730       -4.300       46.834       47.520       35.772     2193.406     2258.124     1279.644        0.947        0.287      114.844       29.540        0.066      344.576       21.494      866.264
07/26/2013  00:57:00      -58.159       -9.427        6.211       64.107       29.229       23.277     4109.756      854.354      541.818        0.451        0.275       58.918       30.610        0.270      344.512       21.383      866.255
07/26/2013  00:58:00     -112.898      -26.984        3.170       39.697       54.611       30.576     1575.833     2982.393      934.865        0.949        0.275      116.078       24.297        0.044      344.435       21.250      866.257
07/26/2013  00:59:00     -189.026      -12.867      -16.204       59.635       54.808       31.965     3556.302     3003.963     1021.765        2.187        0.379      189.463       32.323        0.029      344.434       21.248      866.245
07/26/2013  01:00:00     -133.150      -65.549      -14.859       55.802       41.514       25.348     3113.903     1723.387      642.532        1.386        0.274      148.411       24.479        0.027      344.358       21.118      866.237
07/26/2013  01:01:00      -68.940      -10.015       -0.757       30.528       28.844       24.551      931.987      831.948      602.771        0.361        0.118       69.664       15.635        0.050      344.325       21.062      866.232
07/26/2013  01:02:00      -82.778       -4.629      -13.538       33.319       38.519       17.300     1110.178     1483.700      299.286        0.497        0.145       82.908       20.054        0.059      344.369       21.139      866.241
07/26/2013  01:03:00      -68.084       32.618      -20.785       30.510       43.327       20.280      930.834     1877.216      411.281        0.467        0.161       75.494       11.452        0.023      344.159       20.780      866.247
07/26/2013  01:04:00      -81.832      -21.832      -12.829       31.709       33.317       20.229     1005.487     1110.042      409.195        0.493        0.126       84.695       10.468        0.015      344.198       20.846      866.252
07/26/2013  01:05:00      -79.097      -19.509      -15.621       26.689       31.398       20.229      712.319      985.831      409.206        0.449        0.105       81.467       18.444        0.051      344.100       20.681      866.249
07/26/2013  01:06:00      -61.552      -26.126       -4.143       41.630       29.377       23.900     1733.049      863.032      571.217        0.383        0.158       66.867       27.557        0.170      344.132       20.733      866.265
07/26/2013  01:07:00      -94.929       -4.523      -12.716       23.438       27.389       11.829      549.324      750.146      139.924        0.532        0.072       95.037       11.045        0.014      344.134       20.739      866.267
07/26/2013  01:08:00      -54.994       -9.608        3.093       18.849       21.870       15.463      355.294      478.317      239.118        0.210        0.054       55.827       13.337        0.057      344.209       20.864      866.259
07/26/2013  01:09:00      -72.762       10.392       -9.572       18.674       14.012       10.263      348.724      196.322      105.330        0.307        0.033       73.501        8.912        0.015      344.234       20.908      866.265
07/26/2013  01:10:00      -55.709      -24.211       -6.306       19.987       27.117       13.713      399.479      735.323      188.041        0.253        0.066       60.743       13.005        0.046      344.240       20.919      866.271
07/26/2013  01:11:00      -37.761      -27.121        1.566       40.294       19.987       18.224     1623.579      399.477      332.123        0.226        0.118       46.492       20.909        0.202      344.260       20.951      866.266
07/26/2013  01:12:00      -70.417       -9.261       -0.989       23.534       19.336       16.040      553.866      373.876      257.274        0.311        0.059       71.023       12.696        0.032      344.155       20.773      866.266
07/26/2013  01:13:00      -73.476      -16.098       -1.935       23.325       20.627       16.582      544.045      425.480      274.964        0.345        0.062       75.219       12.167        0.026      344.114       20.704      866.255
07/26/2013  01:14:00      -43.289      -18.772       -1.764       37.791       24.818       12.631     1428.143      615.918      159.543        0.222        0.110       47.184       11.218        0.057      344.088       20.659      866.271
07/26/2013  01:15:00      -26.177      -20.521       -3.187       22.758       16.047       12.964      517.927      257.520      168.078        0.103        0.047       33.262       12.200        0.135      344.201       20.851      866.268
07/26/2013  01:16:00      -51.897       -8.200        0.036       21.003       15.411       11.454      441.112      237.513      131.187        0.179        0.040       52.541       10.180        0.038      344.133       20.736      866.256
07/26/2013  01:17:00      -77.239       13.769       -3.570       27.698       15.545       11.882      767.169      241.654      141.182        0.366        0.058       78.457       10.648        0.018      344.113       20.703      866.246
07/26/2013  01:18:00      -66.374       -9.648       -2.435       31.819       25.994       15.422     1012.464      675.702      237.835        0.321        0.096       67.072       14.650        0.048      344.140       20.746      866.237
07/26/2013  01:19:00      -47.717      -14.944       -0.269       25.679       23.962       17.507      659.433      574.187      306.491        0.202        0.077       50.003       12.808        0.066      344.059       20.609      866.227
07/26/2013  01:20:00      -62.691      -18.532        0.433       35.863       20.511       14.095     1286.165      420.703      198.674        0.309        0.095       65.373       13.511        0.043      344.088       20.660      866.212
07/26/2013  01:21:00      -87.163      -24.074       -9.587       23.759       17.679       15.542      564.475      312.557      241.564        0.469        0.056       90.426       12.310        0.019      344.137       20.743      866.199
07/26/2013  01:22:00      -72.371      -28.179       -8.573       18.570       18.099       11.679      344.860      327.573      136.395        0.346        0.040       77.664        6.337        0.007      344.112       20.700      866.184
07/26/2013  01:23:00      -71.506      -55.002      -11.458       26.520       13.690       17.289      703.335      187.408      298.897        0.473        0.059       90.213       13.245        0.022      344.263       20.958      866.174
07/26/2013  01:24:00      -59.125      -45.626       -7.693       34.220       15.573       13.582     1171.012      242.509      184.475        0.362        0.080       74.683       10.379        0.019      344.260       20.953      866.173
07/26/2013  01:25:00      -67.537      -36.410       -7.494       17.267       15.783       14.120      298.137      249.118      199.374        0.334        0.037       76.726        9.703        0.016      344.233       20.908      866.178
07/26/2013  01:26:00      -70.771      -33.929       -3.261       24.235       22.839       15.112      587.316      521.641      228.358        0.375        0.067       78.484       12.666        0.026      344.221       20.886      866.182
07/26/2013  01:27:00      -75.242      -23.283       -1.082       21.969       15.976       10.890      482.618      255.244      118.582        0.353        0.043       78.762       12.086        0.024      344.234       20.909      866.184
07/26/2013  01:28:00      -70.597      -35.794        1.477       24.520       22.590       11.383      601.225      510.322      129.578        0.375        0.062       79.152        8.467        0.011      344.214       20.874      866.181
07/26/2013  01:29:00      -95.784      -22.912       -4.773       18.286       14.739       10.945      334.389      217.245      119.793        0.520        0.034       98.486        9.821        0.010      344.268       20.967      866.185
07/26/2013  01:30:00      -69.449      -14.510       -5.080       27.580       17.519       14.417      760.632      306.908      207.852        0.317        0.064       70.948       14.514        0.042      344.240       20.917      866.177
07/26/2013  01:31:00      -96.924       -0.357       -8.161       24.916       25.688       14.636      620.807      659.878      214.198        0.548        0.075       96.925       13.064        0.018      344.175       20.807      866.156
07/26/2013  01:32:00      -78.045        3.639       -5.269       26.764       25.218       17.637      716.306      635.953      311.074        0.390        0.083       78.130       11.577        0.022      344.121       20.715      866.152
07/26/2013  01:33:00      -70.537      -10.256       -2.594       29.691       21.991       19.818      881.532      483.596      392.764        0.342        0.088       71.279       19.359        0.074      344.081       20.649      866.148
07/26/2013  01:34:00      -57.751      -11.990       -0.240       34.979       21.298       13.506     1223.506      453.602      182.415        0.267        0.093       58.983       13.628        0.053      344.061       20.613      866.150
07/26/2013  01:35:00      -62.748       -9.038        0.876       27.101       21.262       14.002      734.443      452.091      196.045        0.270        0.069       63.396       14.218        0.050      344.083       20.650      866.143
07/26/2013  01:36:00      -96.435        8.008       -3.844       21.738       16.237       11.966      472.551      263.650      143.175        0.513        0.044       96.767       10.209        0.011      344.101       20.682      866.127
07/26/2013  01:37:00     -109.804       17.363       -4.337       27.642       22.415       15.057      764.095      502.433      226.701        0.693        0.075      111.169       12.117        0.012      344.099       20.678      866.105
07/26/2013  01:38:00     -105.179       15.424       -9.922       19.121       25.421       11.444      365.608      646.237      130.964        0.627        0.057      106.304        7.604        0.005      344.130       20.730      866.083
07/26/2013  01:39:00      -85.111        7.711      -11.343       22.054       24.591       12.294      486.400      604.740      151.142        0.434        0.062       85.459        9.173        0.012      344.117       20.706      866.066
07/26/2013  01:40:00     -146.340       20.394      -16.354       49.329       32.528       19.357     2433.378     1058.098      374.698        1.298        0.193      147.754       15.029        0.010      344.118       20.710      866.048
07/26/2013  01:41:00     -121.830        6.071      -11.316       34.005       42.474       21.617     1156.354     1804.005      467.276        0.922        0.171      121.982       19.080        0.024      344.044       20.585      866.038
07/26/2013  01:42:00     -100.726      -38.649       -4.744       40.959       41.759       22.533     1677.623     1743.798      507.723        0.779        0.196      107.886       20.150        0.035      344.014       20.534      866.039
07/26/2013  01:43:00     -114.760      -36.304       -9.738       43.550       34.318       27.182     1896.595     1177.745      738.886        0.920        0.191      120.366       19.549        0.026      343.934       20.397      866.045
07/26/2013  01:44:00     -112.406      -29.766       -4.689       28.975       26.975       20.057      839.572      727.654      402.294        0.776        0.098      116.280       11.678        0.010      343.916       20.364      866.047
07/26/2013  01:45:00      -69.096      -22.905       -2.559       42.712       25.859       18.712     1824.308      668.696      350.125        0.407        0.142       72.793       13.318        0.033      343.924       20.378      866.056
07/26/2013  01:46:00      -65.126      -43.762       -2.300       29.039       20.185       21.318      843.256      407.416      454.475        0.393        0.085       78.463       15.820        0.041      343.905       20.345      866.071
07/26/2013  01:47:00      -99.377      -35.261      -13.228       29.597       22.811       20.165      875.970      520.364      406.644        0.655        0.090      105.447       13.526        0.016      343.928       20.383      866.091
07/26/2013  01:48:00     -118.460      -18.561      -18.938       29.272       28.066       15.530      856.829      787.721      241.172        0.831        0.094      119.905       10.331        0.007      343.944       20.413      866.099
07/26/2013  01:49:00     -122.265      -30.515       -6.778       24.273       32.984       16.305      589.160     1087.967      265.840        0.893        0.097      126.015        5.795        0.002      343.953       20.429      866.106
07/26/2013  01:50:00     -108.279      -44.774       -7.696       22.665       31.605       15.835      513.722      998.853      250.759        0.778        0.088      117.171       11.702        0.010      343.990       20.491      866.104
07/26/2013  01:51:00     -123.641      -33.774       -3.622       34.227       34.665       17.895     1171.480     1201.650      320.237        0.957        0.135      128.171       13.815        0.012      343.974       20.462      866.112
07/26/2013  01:52:00     -137.661      -32.773       -3.517       29.023       22.591       17.980      842.331      510.340      323.269        1.086        0.084      141.509       12.305        0.008      343.986       20.484      866.125
07/26/2013  01:53:00      -63.976      -39.951        5.864       52.611       30.295       23.116     2767.871      917.777      534.345        0.497        0.211       75.426       30.164        0.160      344.038       20.573      866.125
07/26/2013  01:54:00      -93.996      -38.128       -3.786       44.662       26.823       17.097     1994.669      719.492      292.311        0.665        0.150      101.435       21.502        0.045      344.033       20.564      866.122
07/26/2013  01:55:00      -67.914      -45.397       -2.284       36.318       37.953       16.558     1318.972     1440.457      274.158        0.486        0.152       81.690       13.505        0.027      344.031       20.560      866.110
07/26/2013  01:56:00      -77.329      -10.868       -7.067       50.157       30.488       19.552     2515.678      929.519      382.299        0.499        0.191       78.089       21.416        0.075      343.995       20.502      866.105
07/26/2013  01:57:00      -85.174       -9.621       -4.426       35.412       33.542       18.313     1253.977     1125.067      335.353        0.504        0.136       85.716       11.815        0.019      343.974       20.464      866.103
07/26/2013  01:58:00     -108.600       -8.782      -10.761       24.692       27.562       17.987      609.713      759.664      323.521        0.684        0.085      108.955       15.455        0.020      343.969       20.456      866.105
07/26/2013  01:59:00      -89.778        9.998       -8.447       26.262       19.804       17.077      689.701      392.193      291.610        0.480        0.069       90.333       14.185        0.025      343.950       20.422      866.105
07/26/2013  02:00:00      -63.357      -36.919       -3.693       26.056       41.127       15.946      678.897     1691.389      254.286        0.401        0.131       73.329       19.805        0.073      343.965       20.447      866.119
07/26/2013  02:01:00     -114.765      -10.436       -8.479       42.727       24.125       16.657     1825.566      582.006      277.467        0.802        0.134      115.239       20.924        0.033      343.919       20.371      866.132
07/26/2013  02:02:00      -97.605      -14.559       -5.175       25.676       25.236       19.127      659.237      636.840      365.849        0.571        0.083       98.685       11.202        0.013      343.865       20.280      866.154
07/26/2013  02:03:00      -51.906      -12.064        0.205       42.049       23.492       17.660     1768.137      551.890      311.887        0.274        0.132       53.289       19.010        0.127      343.869       20.285      866.183
07/26/2013  02:04:00      -32.939      -18.837        7.550       21.701       19.303       17.974      470.951      372.597      323.080        0.133        0.058       37.945       15.611        0.169      343.892       20.322      866.202
07/26/2013  02:05:00      -29.374      -14.652       -6.412       16.952       11.580       11.316      287.376      134.104      128.044        0.083        0.027       32.826        7.232        0.049      343.986       20.484      866.218
07/26/2013  02:06:00      -36.377      -17.185       -1.017       14.680       12.382       13.003      215.488      153.314      169.088        0.108        0.027       40.232        9.561        0.056      344.045       20.585      866.234
07/26/2013  02:07:00      -31.206      -24.760        6.275       21.103       14.212       13.710      445.327      201.991      187.967        0.123        0.042       39.836       14.489        0.132      344.082       20.649      866.240
07/26/2013  02:08:00      -36.016      -12.699        0.907       22.925       14.691       13.368      525.540      215.818      178.701        0.119        0.046       38.190       12.228        0.103      344.098       20.675      866.236
07/26/2013  02:09:00      -34.070      -21.805        0.874       18.752       15.285       15.447      351.621      233.617      238.595        0.123        0.041       40.450       14.911        0.136      344.141       20.751      866.224
07/26/2013  02:10:00      -37.607      -27.483        6.702       29.444       16.754       15.221      866.971      280.712      231.679        0.180        0.069       46.579        9.342        0.040      344.258       20.950      866.221
07/26/2013  02:11:00      -13.621      -19.744        3.359       14.563       17.528       11.064      212.080      307.237      122.421        0.061        0.032       23.987       10.096        0.177      344.354       21.114      866.224
07/26/2013  02:12:00      -55.230      -11.493       -6.197        6.967       10.548        7.192       48.536      111.257       51.721        0.172        0.011       56.413        5.118        0.008      344.274       20.977      866.217
07/26/2013  02:13:00      -39.738       -3.016        1.141       10.245        9.183        6.223      104.960       84.332       38.726        0.091        0.011       39.853        4.072        0.010      344.204       20.856      866.213
07/26/2013  02:14:00      -17.237      -12.969       -3.603        9.564        7.897        8.518       91.467       62.356       72.559        0.035        0.011       21.571        5.484        0.065      344.166       20.794      866.211
07/26/2013  02:15:00      -23.890        4.952       -6.029        9.349        9.299        6.670       87.408       86.465       44.486        0.042        0.011       24.398        3.633        0.022      344.098       20.675      866.217
07/26/2013  02:16:00      -23.221        6.450        1.221       10.380        5.189        5.529      107.735       26.927       30.568        0.037        0.008       24.101        6.062        0.063      344.068       20.627      866.227
07/26/2013  02:17:00      -10.279      -21.275       -3.369       11.667       14.775       10.326      136.113      218.307      106.628        0.052        0.023       23.628       10.917        0.213      344.223       20.890      866.237
07/26/2013  02:18:00      -35.119      -14.903       -0.753        8.806       14.003        7.487       77.550      196.088       56.048        0.089        0.016       38.150        6.280        0.027      344.250       20.935      866.244
07/26/2013  02:19:00      -34.182       -9.737       -1.997       15.123       14.333        9.694      228.705      205.441       93.970        0.090        0.026       35.542        7.820        0.048      344.256       20.946      866.249
07/26/2013  02:20:00      -65.871      -11.098       -6.398        8.731        9.417        7.892       76.239       88.680       62.289        0.237        0.011       66.800        4.527        0.005      344.267       20.966      866.238
07/26/2013  02:21:00      -39.339      -10.784       -1.884       14.758       10.552        7.310      217.786      111.349       53.441        0.102        0.019       40.790        6.701        0.027      344.151       20.764      866.237
07/26/2013  02:22:00      -57.849      -16.501       -5.409       11.667       12.881        8.183      136.119      165.908       66.955        0.201        0.018       60.156        2.017        0.001      344.175       20.809      866.235
07/26/2013  02:23:00      -66.763       -8.511       -5.421       17.444       11.067        8.613      304.305      122.486       74.177        0.253        0.025       67.303        9.017        0.018      344.097       20.675      866.235
07/26/2013  02:24:00      -85.437        3.231       -3.239       18.157        8.748        9.445      329.689       76.520       89.214        0.391        0.025       85.498       10.339        0.015      344.099       20.678      866.224
07/26/2013  02:25:00      -89.295       -8.385       -7.442       12.705       10.442        6.029      161.405      109.038       36.345        0.420        0.015       89.688        4.808        0.003      344.135       20.740      866.212
07/26/2013  02:26:00      -78.550      -17.262       -4.642       18.053       18.422       13.614      325.924      339.372      185.354        0.367        0.043       80.424       12.335        0.024      344.061       20.613      866.194
07/26/2013  02:27:00      -64.186        1.962       -9.747       26.775       19.452        9.481      716.874      378.380       89.883        0.270        0.059       64.216        6.379        0.010      343.966       20.450      866.172
07/26/2013  02:28:00      -74.955       40.460      -12.282       22.688       25.291       14.360      514.762      639.612      206.199        0.438        0.068       85.178       14.083        0.027      343.956       20.432      866.147
07/26/2013  02:29:00      -66.918       36.055       -5.561       26.304       28.890       21.258      691.904      834.656      451.917        0.389        0.099       76.013       19.518        0.066      344.054       20.600      866.125
07/26/2013  02:30:00      -89.115       65.290      -17.321       20.358       21.965       12.765      414.444      482.459      162.934        0.678        0.053      110.473       12.757        0.013      344.027       20.556      866.102
07/26/2013  02:31:00      -96.187       99.066      -22.323       28.191       36.043       21.535      794.718     1299.121      463.773        1.106        0.128      138.080       13.951        0.010      343.937       20.400      866.086
07/26/2013  02:32:00     -105.137       60.104      -11.114       30.311       37.758       23.475      918.729     1425.657      551.071        0.884        0.145      121.105       24.222        0.040      343.921       20.373      866.071
07/26/2013  02:33:00      -92.668       51.477      -12.290       15.687       37.050       16.482      246.095     1372.673      271.668        0.664        0.095      106.006       16.034        0.023      343.958       20.437      866.058
07/26/2013  02:34:00      -84.891       -3.921      -10.778       19.914       32.708       16.624      396.574     1069.801      276.350        0.454        0.087       84.982       12.341        0.021      343.998       20.504      866.045
07/26/2013  02:35:00     -105.681      -54.439       -4.247       42.729       29.185       20.424     1825.765      851.766      417.119        0.862        0.155      118.879       14.996        0.016      343.926       20.383      866.040
07/26/2013  02:36:00     -118.842      -67.529       -7.031       36.304       38.996       24.962     1317.974     1520.654      623.118        1.110        0.173      136.688       22.009        0.026      343.886       20.314      866.032
07/26/2013  02:37:00     -144.840      -13.422      -12.054       37.816       31.822       27.574     1430.085     1012.660      760.300        1.225        0.160      145.460       22.011        0.023      343.851       20.254      866.022
07/26/2013  02:38:00     -136.854      -22.382      -17.347       34.358       56.114       29.845     1180.499     3148.744      890.739        1.237        0.261      138.673       28.174        0.041      343.898       20.334      865.998
07/26/2013  02:39:00     -106.603      -19.931       -6.426       36.488       35.330       22.429     1331.386     1248.218      503.040        0.744        0.154      108.450       18.731        0.030      343.904       20.341      865.966
07/26/2013  02:40:00     -131.293      -19.767       -7.585       41.311       33.502       20.020     1706.596     1122.370      400.806        1.046        0.161      132.773       17.989        0.018      343.898       20.332      865.925
07/26/2013  02:41:00     -109.291        6.031        4.766       56.335       48.921       28.176     3173.601     2393.246      793.859        0.918        0.318      109.457       32.416        0.088      343.918       20.368      865.895
07/26/2013  02:42:00     -125.076        2.077      -16.351       45.818       60.110       22.650     2099.253     3613.269      513.003        1.107        0.311      125.094       23.106        0.034      343.969       20.456      865.880
07/26/2013  02:43:00      -95.359       -3.555      -15.404       49.945       39.170       22.633     2494.493     1534.318      512.258        0.694        0.227       95.425       14.278        0.022      343.978       20.472      865.871
07/26/2013  02:44:00     -106.232      -40.300        2.439       55.118       43.038       23.010     3037.946     1852.307      529.454        0.917        0.271      113.619       15.446        0.018      343.966       20.450      865.875
07/26/2013  02:45:00     -126.347      -31.478       -8.828       32.811       42.810       18.614     1076.588     1832.737      346.469        1.014        0.163      130.209       11.770        0.008      343.982       20.478      865.875
07/26/2013  02:46:00     -140.136      -36.079      -13.991       36.676       41.136       25.819     1345.149     1692.176      666.597        1.242        0.185      144.706       20.713        0.020      343.959       20.438      865.867
07/26/2013  02:47:00     -151.671      -23.623       -5.135       51.432       42.714       23.913     2645.244     1824.467      571.811        1.431        0.252      153.500       23.081        0.023      343.968       20.456      865.852
07/26/2013  02:48:00     -144.292      -24.690       -1.148       40.751       57.503       25.768     1660.632     3306.553      663.972        1.353        0.282      146.389       20.579        0.020      343.987       20.485      865.830
07/26/2013  02:49:00     -148.237      -19.069        0.463       45.470       47.179       24.869     2067.488     2225.859      618.463        1.362        0.246      149.458       20.157        0.018      344.017       20.537      865.819
07/26/2013  02:50:00     -148.270      -36.796       -9.292       41.853       38.059       25.938     1751.657     1448.517      672.803        1.365        0.194      152.768       23.148        0.023      344.070       20.626      865.813
07/26/2013  02:51:00     -129.754      -26.466       -6.815       42.024       40.475       27.724     1766.000     1638.186      768.620        1.088        0.209      132.425       20.711        0.024      344.071       20.631      865.828
07/26/2013  02:52:00     -110.826      -49.785       -5.811       49.352       28.050       24.249     2435.603      786.775      588.037        0.930        0.191      121.495       28.287        0.054      344.106       20.689      865.834
07/26/2013  02:53:00     -158.362      -40.101       -8.757       21.131       28.929       18.332      446.501      836.892      336.064        1.419        0.081      163.360        5.897        0.001      344.194       20.839      865.844
07/26/2013  02:54:00      -99.815      -28.281      -10.505       36.741       26.986       16.778     1349.869      728.267      281.516        0.662        0.118      103.744       18.268        0.031      344.224       20.890      865.850
07/26/2013  02:55:00      -45.170      -62.446       -0.617       30.887       26.238       19.377      954.016      688.450      375.449        0.398        0.101       77.071       14.286        0.034      344.265       20.961      865.863
07/26/2013  02:56:00      -50.072      -78.710       -5.815       31.934       30.874       18.344     1019.801      953.189      336.501        0.552        0.115       93.287       19.887        0.045      344.244       20.924      865.864
07/26/2013  02:57:00      -31.913      -48.634        8.598       31.572       36.191       19.645      996.794     1309.756      385.910        0.307        0.135       58.170       24.190        0.173      344.297       21.016      865.854
07/26/2013  02:58:00      -38.945      -22.677        7.563       35.164       24.949       14.825     1236.495      622.437      219.788        0.208        0.104       45.066       14.900        0.109      344.316       21.050      865.846
07/26/2013  02:59:00      -37.364      -36.630       11.802       40.162       28.287       20.729     1613.021      800.142      429.694        0.286        0.142       52.324       16.971        0.105      344.272       20.972      865.854
07/26/2013  03:00:00      -63.523      -64.183        3.282       51.174       33.533       25.062     2618.787     1124.478      628.114        0.627        0.219       90.303       23.354        0.067      344.274       20.978      865.852
07/26/2013  03:01:00     -123.809      -88.748       -4.953       29.400       39.733       21.256      864.347     1578.698      451.829        1.306        0.145      152.332        9.425        0.004      344.232       20.905      865.836
07/26/2013  03:02:00     -117.686      -77.713        5.595       49.401       40.289       35.034     2440.483     1623.233     1227.378        1.260        0.265      141.029       32.113        0.052      344.252       20.939      865.811
07/26/2013  03:03:00     -122.610      -45.137        2.027       53.672       33.834       21.507     2880.664     1144.733      462.567        1.078        0.224      130.654       23.240        0.032      344.268       20.966      865.777
07/26/2013  03:04:00     -149.287      -37.776        2.123       64.667       41.742       29.336     4181.761     1742.386      860.630        1.525        0.339      153.992       35.013        0.052      344.347       21.099      865.750
07/26/2013  03:05:00     -169.860      -52.511       -1.744       40.135       33.357       24.924     1610.829     1112.660      621.219        1.748        0.167      177.792       20.524        0.013      344.368       21.136      865.721
07/26/2013  03:06:00     -119.445      -57.917        3.443       56.005       35.558       24.468     3136.573     1264.402      598.691        1.132        0.250      132.746       29.554        0.050      344.288       21.001      865.686
07/26/2013  03:07:00     -129.620      -75.653       -0.987       59.628       45.945       27.091     3555.467     2110.986      733.935        1.446        0.320      150.082       25.009        0.028      344.314       21.044      865.653
07/26/2013  03:08:00     -112.603      -53.162       -2.886       35.392       26.458       18.788     1252.627      700.005      352.981        0.891        0.115      124.522       17.806        0.020      344.246       20.930      865.631
07/26/2013  03:09:00      -83.335      -38.720       -1.277       47.433       26.841       17.526     2249.869      720.421      307.168        0.586        0.164       91.891       20.895        0.052      344.231       20.904      865.621
07/26/2013  03:10:00      -71.507      -53.230        3.518       38.182       21.600       17.048     1457.837      466.549      290.636        0.509        0.111       89.144       20.483        0.053      344.254       20.943      865.635
07/26/2013  03:11:00      -47.204      -45.150       -5.349       27.438       21.328       10.748      752.820      454.897      115.512        0.281        0.066       65.320        7.425        0.013      344.302       21.023      865.648
07/26/2013  03:12:00      -24.141      -41.833        6.099       21.422       16.375       15.705      458.903      268.139      246.662        0.167        0.049       48.299       11.264        0.054      344.315       21.044      865.667
07/26/2013  03:13:00      -37.523      -56.939        2.606       23.468       25.225       16.661      550.730      636.278      277.578        0.306        0.073       68.191       15.466        0.051      344.365       21.132      865.682
07/26/2013  03:14:00      -74.250      -64.482        1.310       42.051       32.167       22.364     1768.295     1034.714      500.166        0.649        0.165       98.342       19.864        0.041      344.321       21.058      865.702
07/26/2013  03:15:00      -95.031     -111.776       -4.994       39.232       73.633       35.962     1539.163     5421.796     1293.254        1.490        0.413      146.714       39.331        0.072      344.260       20.952      865.700
07/26/2013  03:16:00      -96.994      -63.301       -7.654       39.189       38.574       23.094     1535.807     1487.978      533.351        0.851        0.178      115.823       14.877        0.016      344.248       20.932      865.689
07/26/2013  03:17:00      -50.867     -118.379       -2.368       76.706       54.563       32.007     5883.817     2977.159     1024.429        1.324        0.494      128.845       35.324        0.075      344.238       20.915      865.671
07/26/2013  03:18:00      -95.116      -78.925       -8.901       49.584       39.556       34.043     2458.620     1564.715     1158.951        1.027        0.259      123.597       19.515        0.025      344.232       20.902      865.651
07/26/2013  03:19:00      -73.238      -37.932       -9.465       25.497       26.561       19.240      650.080      705.461      370.182        0.431        0.086       82.478        8.328        0.010      344.232       20.904      865.635
07/26/2013  03:20:00      -52.894      -44.575       -3.594       47.461       25.022       15.774     2252.589      626.103      248.810        0.396        0.156       69.172       12.488        0.033      344.209       20.866      865.620
07/26/2013  03:21:00      -29.517      -13.011       -9.495       21.728       18.923       10.659      472.097      358.071      113.615        0.104        0.047       32.257       12.006        0.139      344.197       20.850      865.626
07/26/2013  03:22:00       -3.233       13.686       -0.866       11.097       15.970       11.934      123.141      255.044      142.416        0.036        0.026       14.063       11.085        0.621      344.233       20.905      865.643
07/26/2013  03:23:00      -11.221       18.639        6.531       16.396       19.645       11.846      268.821      385.926      140.331        0.066        0.040       21.756       13.319        0.375      344.289       21.002      865.668
07/26/2013  03:24:00       16.854       12.842       13.993       15.900        7.924        6.440      252.810       62.797       41.479        0.050        0.018       21.189        3.136        0.022      344.246       20.929      865.684
07/26/2013  03:25:00       45.789       44.546       15.592       21.714       14.076       16.787      471.484      198.122      281.817        0.264        0.048       63.882       14.708        0.053      344.266       20.965      865.697
07/26/2013  03:26:00       -6.114       56.315       68.820       14.092       27.227       21.996      198.586      741.315      483.823        0.468        0.071       56.646       19.435        0.118      344.290       21.005      865.706
07/26/2013  03:27:00       17.371       93.827       87.958       28.300       31.314       23.482      800.885      980.581      551.386        0.959        0.117       95.422       21.301        0.050      344.255       20.942      865.704
07/26/2013  03:28:00       39.166       68.367       67.770       33.227       34.525       30.450     1104.015     1191.974      927.208        0.701        0.161       78.791       25.688        0.106      344.256       20.945      865.694
07/26/2013  03:29:00       61.963       34.800       57.101       40.133       26.714       24.101     1610.689      713.619      580.861        0.561        0.145       71.066       22.933        0.104      344.270       20.969      865.687
07/26/2013  03:30:00       70.961       40.269       36.948       24.509       31.778       30.423      600.703     1009.863      925.539        0.528        0.127       81.591       17.788        0.048      344.285       20.996      865.683
07/26/2013  03:31:00       21.123       48.969       60.113       39.893       26.352       28.499     1591.457      694.451      812.188        0.478        0.155       53.330       27.230        0.261      344.295       21.016      865.680
07/26/2013  03:32:00        4.701       20.919       55.372       25.978       35.628       24.994      674.838     1269.319      624.702        0.305        0.128       21.440       25.694        1.436      344.312       21.041      865.687
07/26/2013  03:33:00       21.733      -14.169       48.283       26.314       42.210       23.225      692.417     1781.646      539.381        0.301        0.151       25.944       21.826        0.708      344.359       21.123      865.693
07/26/2013  03:34:00       30.751       -9.979       34.442       28.641       31.062       20.418      820.286      964.867      416.887        0.222        0.110       32.330       12.089        0.140      344.325       21.064      865.697
07/26/2013  03:35:00       31.157       24.828       45.763       27.437       36.582       25.897      752.772     1338.235      670.663        0.322        0.138       39.839       22.461        0.318      344.295       21.013      865.693
07/26/2013  03:36:00       22.350       14.599       44.705       28.965       31.674       23.021      838.997     1003.235      529.956        0.254        0.119       26.696       14.255        0.285      344.332       21.076      865.689
07/26/2013  03:37:00       27.823       22.154       36.704       23.150       26.871       16.305      535.911      722.066      265.854        0.207        0.076       35.566        5.738        0.026      344.187       20.827      865.688
07/26/2013  03:38:00       13.636        9.597       10.821       13.688       11.337       11.541      187.369      128.518      133.201        0.042        0.022       16.675        4.482        0.072      344.193       20.837      865.698
07/26/2013  03:39:00        8.728        8.338       14.235       15.211       10.073       11.701      231.378      101.463      136.911        0.041        0.023       12.071        9.043        0.561      344.196       20.842      865.699
07/26/2013  03:40:00      -23.615       25.807       -2.133       16.675       12.749       14.092      278.054      162.542      198.590        0.093        0.032       34.981        9.769        0.078      344.159       20.780      865.695
07/26/2013  03:41:00       26.092       58.362        6.821       25.670       17.718       17.409      658.927      313.929      303.081        0.270        0.064       63.929       10.999        0.030      344.120       20.715      865.697
07/26/2013  03:42:00       26.188       71.349       -5.071       25.542       29.083       19.766      652.371      845.793      390.704        0.385        0.094       76.003       18.594        0.060      344.022       20.547      865.714
07/26/2013  03:43:00        9.121       93.151       -4.637       26.229       28.431       23.696      687.961      808.294      561.492        0.542        0.103       93.596       19.152        0.042      344.027       20.554      865.731
07/26/2013  03:44:00       10.951       83.008       -3.974       23.145       37.743       22.882      535.682     1424.562      523.585        0.475        0.124       83.727       23.264        0.077      344.001       20.511      865.741
07/26/2013  03:45:00      -14.600      143.923      -12.477       18.989       24.124       12.277      360.595      581.956      150.719        1.109        0.055      144.662        7.645        0.003      344.059       20.608      865.754
07/26/2013  03:46:00      -24.624      155.809      -17.868       15.971       17.779       11.938      255.063      316.095      142.525        1.296        0.036      157.743        5.268        0.001      344.030       20.560      865.752
07/26/2013  03:47:00      -53.959      130.355      -14.384       22.814       34.900       22.956      520.478     1217.981      526.974        1.119        0.113      141.082       20.917        0.022      344.057       20.605      865.747
07/26/2013  03:48:00      -52.697      104.139      -15.918       28.425       30.105       20.409      808.005      906.316      416.514        0.800        0.107      116.712       18.140        0.024      344.064       20.618      865.742
07/26/2013  03:49:00      -39.575       96.604      -12.467       20.937       33.907       16.133      438.338     1149.661      260.269        0.645        0.092      104.396       11.624        0.012      344.155       20.773      865.736
07/26/2013  03:50:00      -40.200       68.027       -8.220       27.541       32.027       15.050      758.534     1025.754      226.502        0.416        0.101       79.017       10.129        0.016      344.217       20.880      865.727
07/26/2013  03:51:00      -14.518       95.392      -13.715       18.517       24.596       11.292      342.862      604.983      127.518        0.529        0.054       96.490       10.343        0.011      344.313       21.044      865.728
07/26/2013  03:52:00      -10.970       85.420       -8.543       24.431       25.564       14.298      596.857      653.537      204.447        0.447        0.073       86.121       10.687        0.015      344.278       20.983      865.725
07/26/2013  03:53:00       21.664       89.328      -11.068       12.919       14.104       13.133      166.890      198.927      172.478        0.455        0.027       91.917        7.579        0.007      344.347       21.101      865.733
07/26/2013  03:54:00       13.056       45.681        3.150       15.494       25.483       17.809      240.063      649.385      317.162        0.174        0.060       47.511       12.585        0.070      344.306       21.031      865.763
07/26/2013  03:55:00       81.913       28.937        3.431       37.385       14.623       22.523     1397.668      213.840      507.282        0.484        0.106       86.874       11.180        0.017      344.358       21.121      865.797
07/26/2013  03:56:00       51.367       26.795        9.517       31.840       33.212       24.049     1013.810     1103.017      578.335        0.307        0.135       57.935        8.707        0.023      344.506       21.372      865.831
07/26/2013  03:57:00       27.894       30.487       28.377       30.137       20.823       26.410      908.244      433.603      697.468        0.228        0.102       41.322       15.657        0.144      344.413       21.214      865.850
07/26/2013  03:58:00      -14.760       10.280       26.116       13.757       20.520       14.567      189.261      421.087      212.210        0.091        0.041       17.987       11.363        0.399      344.272       20.975      865.860
07/26/2013  03:59:00       -5.249       22.743       38.627       10.363       17.560       13.991      107.390      308.341      195.740        0.132        0.031       23.340        6.973        0.089      344.329       21.071      865.847
07/26/2013  04:00:00       11.091       28.882        9.682       30.267       15.875       10.249      916.085      252.028      105.040        0.116        0.064       30.938        5.899        0.036      344.439       21.259      865.839
07/26/2013  04:01:00       86.211       57.219       16.723       22.985       19.790       16.026      528.287      391.662      256.841        0.608        0.059      103.472       10.621        0.011      344.290       21.005      865.821
07/26/2013  04:02:00       34.459       34.872       10.497       68.147       27.768       24.340     4643.968      771.036      592.454        0.426        0.300       49.025       10.954        0.050      344.396       21.184      865.804
07/26/2013  04:03:00        3.820       74.490       -3.089       28.964       35.343       24.653      838.937     1249.154      607.760        0.413        0.135       74.588       23.281        0.097      344.376       21.151      865.802
07/26/2013  04:04:00       53.782       40.779        6.205       34.490       29.159       24.212     1189.551      850.240      586.207        0.361        0.131       67.494       22.050        0.107      344.269       20.968      865.798
07/26/2013  04:05:00       41.926       73.827      -12.297       37.521       52.803       29.985     1407.809     2788.178      899.075        0.623        0.255       84.901       30.153        0.126      344.325       21.065      865.803
07/26/2013  04:06:00       58.080       49.861        9.594       43.056       30.138       28.484     1853.790      908.321      811.317        0.476        0.179       76.546       18.031        0.055      344.301       21.023      865.810
07/26/2013  04:07:00      131.642       73.536       21.655       50.951       43.528       38.429     2595.980     1894.678     1476.801        1.459        0.298      150.788       30.467        0.041      344.192       20.835      865.823
07/26/2013  04:08:00       81.700       56.809        4.014       43.953       37.985       26.483     1931.871     1442.881      701.328        0.700        0.204       99.509       18.698        0.035      344.199       20.847      865.821
07/26/2013  04:09:00       16.753       60.075        4.617       26.283       43.289       30.234      690.771     1873.929      914.079        0.369        0.174       62.367       28.013        0.202      344.154       20.771      865.807
07/26/2013  04:10:00       13.329       58.859        0.403       29.820       40.320       21.837      889.223     1625.727      476.855        0.332        0.150       60.350       21.328        0.125      344.179       20.813      865.791
07/26/2013  04:11:00       33.909      116.393       -2.664       48.208       56.239       34.043     2324.021     3162.831     1158.951        1.067        0.332      121.232       32.814        0.073      344.193       20.838      865.788
07/26/2013  04:12:00      -25.216      112.811      -20.180       22.617       26.071       16.533      511.544      679.717      273.343        0.762        0.073      115.595       14.023        0.015      344.191       20.835      865.793
07/26/2013  04:13:00        6.053       60.306       -5.307       24.840       29.456       13.303      617.041      867.656      176.976        0.268        0.083       60.609       15.749        0.068      344.108       20.695      865.792
07/26/2013  04:14:00        7.532      129.091      -15.190       32.917       48.184       19.311     1083.530     2321.665      372.921        1.036        0.189      129.311       23.205        0.032      344.109       20.693      865.789
07/26/2013  04:15:00       11.897      139.353      -14.624       29.494       30.702       16.738      869.892      942.605      280.157        1.093        0.105      139.860       11.426        0.007      344.139       20.747      865.793
07/26/2013  04:16:00       12.682       71.559       -2.063       19.863       34.076       23.226      394.542     1161.182      539.452        0.369        0.105       72.674       21.262        0.086      344.081       20.647      865.813
07/26/2013  04:17:00       35.934       31.245       -0.782       27.470       19.219       17.043      754.586      369.370      290.451        0.184        0.071       47.618       13.372        0.079      344.041       20.580      865.841
07/26/2013  04:18:00       42.859       30.555       -0.666        9.161        7.458        6.971       83.923       55.628       48.599        0.148        0.009       52.635        2.233        0.002      344.017       20.536      865.854
07/26/2013  04:19:00       48.844       21.460        0.171        8.524        5.801        5.798       72.659       33.654       33.621        0.149        0.007       53.351        3.739        0.005      344.085       20.651      865.858
07/26/2013  04:20:00       37.646       17.775        7.120       14.913       13.057       12.544      222.410      170.478      157.341        0.117        0.028       41.632        8.431        0.041      344.030       20.559      865.854
07/26/2013  04:21:00       41.832        8.088       10.125       14.740       12.669       13.157      217.263      160.498      173.116        0.123        0.028       42.607        2.858        0.004      344.109       20.693      865.855
07/26/2013  04:22:00       18.046        1.983        3.027       17.217        9.461        8.142      296.429       89.506       66.297        0.040        0.023       18.155        5.561        0.094      344.111       20.699      865.843
07/26/2013  04:23:00       17.385       19.690       -4.262       21.924       22.363        9.086      480.658      500.085       82.552        0.089        0.053       26.267       10.855        0.171      344.124       20.720      865.839
07/26/2013  04:24:00       41.304       27.772        2.066        7.560        8.118        5.254       57.153       65.900       27.603        0.132        0.008       49.772        4.201        0.007      344.140       20.746      865.837
07/26/2013  04:25:00       33.077       12.818        6.749        7.231        8.988        7.773       52.294       80.790       60.424        0.075        0.010       35.474        4.877        0.019      344.102       20.685      865.841
07/26/2013  04:26:00       12.330        5.043        2.494        7.405        4.377        8.642       54.835       19.155       74.680        0.017        0.007       13.321        3.386        0.065      344.086       20.656      865.847
07/26/2013  04:27:00       -2.117        6.392        2.210        3.098        3.958        4.838        9.598       15.664       23.404        0.005        0.002        6.733        3.056        0.206      344.081       20.645      865.857
07/26/2013  04:28:00       -2.205       -3.740       -1.587        2.143        4.224        3.138        4.591       17.839        9.847        0.003        0.002        4.341        1.794        0.171      344.019       20.542      865.870
07/26/2013  04:29:00       -1.161       -2.134       -2.833        4.595        5.482        3.140       21.115       30.051        9.858        0.004        0.003        2.429        2.877        1.403      344.106       20.690      865.875
07/26/2013  04:30:00      -38.022       -7.388       -5.503       15.373        6.989        5.794      236.334       48.847       33.568        0.092        0.016       38.733        6.005        0.024      344.084       20.652      865.882
07/26/2013  04:31:00      -46.616      -22.319       -2.834       11.283        6.938        6.205      127.313       48.142       38.504        0.145        0.011       51.684        4.858        0.009      343.982       20.478      865.890
07/26/2013  04:32:00      -42.605      -27.400        1.057       12.377       10.507        6.797      153.188      110.402       46.197        0.144        0.015       50.656        2.449        0.002      343.942       20.407      865.896
07/26/2013  04:33:00      -38.997      -29.405        0.361       11.607        5.958        9.138      134.720       35.498       83.510        0.132        0.013       48.841        8.286        0.029      344.004       20.516      865.910
07/26/2013  04:34:00      -25.170      -18.345        2.428       11.770       12.085        8.389      138.537      146.053       70.384        0.067        0.018       31.146        8.316        0.071      344.018       20.538      865.924
07/26/2013  04:35:00      -25.394      -20.813        4.242       14.740       11.235       11.475      217.259      126.216      131.676        0.079        0.024       32.833        9.765        0.088      343.985       20.483      865.939
07/26/2013  04:36:00      -59.237      -24.725       -0.690       12.909       12.075        8.054      166.643      145.795       64.868        0.225        0.019       64.190        6.658        0.011      343.975       20.463      865.947
07/26/2013  04:37:00      -95.488      -22.164       -2.181       20.703       13.810       10.531      428.619      190.726      110.906        0.517        0.037       98.026       10.440        0.011      343.910       20.353      865.950
07/26/2013  04:38:00      -94.528      -29.538        3.915       40.673       27.686       18.963     1654.267      766.504      359.588        0.630        0.139       99.036       18.745        0.036      343.849       20.250      865.946
07/26/2013  04:39:00     -111.189      -14.114      -10.971       27.678       20.364       17.047      766.053      414.709      290.593        0.708        0.074      112.081       16.056        0.021      343.756       20.093      865.941
07/26/2013  04:40:00     -110.808       11.227       -7.257       31.498       23.376       19.080      992.117      546.430      364.055        0.718        0.095      111.376       18.672        0.028      343.760       20.100      865.937
07/26/2013  04:41:00      -86.224       21.590       -4.264       34.681       22.398       15.157     1202.780      501.676      229.727        0.493        0.097       88.885       16.076        0.033      343.706       20.006      865.931
07/26/2013  04:42:00      -58.187       24.912       -4.682       23.141       26.217       14.041      535.485      687.328      197.149        0.272        0.071       63.295       13.798        0.048      343.735       20.055      865.934
07/26/2013  04:43:00      -88.920       11.493       -9.371       25.806       29.879       14.213      665.936      892.742      202.002        0.494        0.088       89.660       10.923        0.015      343.730       20.049      865.946
07/26/2013  04:44:00      -82.905       -0.292       -6.185       50.590       41.123       24.885     2559.303     1691.078      619.275        0.589        0.243       82.905       23.735        0.082      343.675       19.951      865.962
07/26/2013  04:45:00      -62.565      -11.336        6.429       29.555       28.472       21.659      873.518      810.627      469.094        0.312        0.108       63.583       15.758        0.061      343.608       19.840      865.978
07/26/2013  04:46:00     -101.369       20.583      -18.513       30.529       36.800       30.277      932.001     1354.208      916.701        0.712        0.160      103.437       18.810        0.033      343.630       19.878      865.991
07/26/2013  04:47:00     -100.864       21.552      -10.632       32.836       39.777       26.984     1078.213     1582.229      728.149        0.707        0.169      103.141       14.759        0.020      343.613       19.848      866.001
07/26/2013  04:48:00      -83.936        3.147       -6.654       37.779       59.866       23.861     1427.286     3583.881      569.335        0.634        0.279       83.995       15.277        0.033      343.447       19.565      866.006
07/26/2013  04:49:00     -111.446        2.553       -6.666       28.665       41.946       19.481      821.663     1759.454      379.516        0.772        0.148      111.475       16.585        0.022      343.455       19.580      866.006
07/26/2013  04:50:00     -122.170       15.989      -12.581       47.675       36.125       21.881     2272.861     1305.028      478.779        0.970        0.203      123.211       18.656        0.023      343.292       19.300      866.010
07/26/2013  04:51:00     -144.966       29.467      -14.661       34.200       38.307       25.620     1169.670     1467.425      656.364        1.270        0.165      147.931       17.381        0.014      343.246       19.221      866.021
07/26/2013  04:52:00     -123.363       11.631       -9.288       67.412       42.163       27.083     4544.330     1777.678      733.514        1.125        0.353      123.910       32.589        0.069      343.281       19.284      866.037
07/26/2013  04:53:00     -118.855        1.724       -8.204       45.623       33.572       24.223     2081.425     1127.051      586.758        0.900        0.190      118.867       23.025        0.038      343.230       19.197      866.049
07/26/2013  04:54:00     -157.738       19.597      -17.555       36.821       45.828       20.481     1355.821     2100.190      419.477        1.472        0.194      158.951       12.798        0.006      343.161       19.078      866.061
07/26/2013  04:55:00     -155.139       26.214      -17.878       43.369       47.467       29.531     1880.867     2253.151      872.062        1.504        0.250      157.338       23.231        0.022      343.141       19.043      866.084
07/26/2013  04:56:00     -140.408      -27.008      -11.187       40.022       48.021       17.838     1601.743     2305.995      318.197        1.240        0.211      142.982       14.903        0.011      343.117       19.002      866.097
07/26/2013  04:57:00     -144.439      -23.302      -10.697       36.731       36.070       19.609     1349.195     1301.069      384.497        1.228        0.152      146.306       20.726        0.020      343.146       19.052      866.103
07/26/2013  04:58:00     -148.211       20.343      -17.828       51.441       38.835       25.589     2646.140     1508.175      654.803        1.375        0.240      149.601       25.656        0.029      343.124       19.013      866.104
07/26/2013  04:59:00     -137.609       25.808      -11.717       42.033       35.738       26.811     1766.779     1277.236      718.845        1.175        0.188      140.009       20.120        0.021      343.162       19.079      866.113
07/26/2013  05:00:00     -123.565       31.308      -13.717       41.432       34.398       19.541     1716.584     1183.212      381.852        0.986        0.164      127.469       17.478        0.019      343.121       19.010      866.125
07/26/2013  05:01:00     -136.368       10.877       -6.955       60.498       48.998       26.221     3660.045     2400.786      687.515        1.275        0.337      136.801       24.016        0.031      343.183       19.115      866.130
07/26/2013  05:02:00     -142.598       35.503      -12.676       35.801       43.135       21.415     1281.737     1860.623      458.613        1.268        0.180      146.951       18.679        0.016      343.147       19.053      866.146
07/26/2013  05:03:00     -111.307        4.754      -11.685       50.401       32.800       17.035     2540.249     1075.859      290.197        0.823        0.195      111.408       18.545        0.028      343.135       19.032      866.167
07/26/2013  05:04:00     -165.309       38.489      -16.956       38.082       31.637       17.347     1450.269     1000.898      300.934        1.592        0.138      169.731       18.410        0.012      343.170       19.092      866.176
07/26/2013  05:05:00     -148.850        6.840      -15.011       36.337       38.182       19.605     1320.360     1457.854      384.374        1.279        0.158      149.007       16.117        0.012      343.173       19.099      866.181
07/26/2013  05:06:00     -124.470        8.480      -11.365       36.302       50.234       21.092     1317.847     2523.413      444.884        0.999        0.214      124.758       15.703        0.016      343.153       19.065      866.188
07/26/2013  05:07:00     -161.335       -8.388      -17.627       64.178       45.724       28.481     4118.766     2090.696      811.144        1.671        0.351      161.553       26.827        0.028      343.177       19.104      866.185
07/26/2013  05:08:00     -189.194        8.171      -18.221       52.465       51.441       28.341     2752.536     2646.128      803.229        2.120        0.310      189.370       16.859        0.008      343.241       19.213      866.180
07/26/2013  05:09:00     -182.470       16.500      -23.131       55.186       60.267       20.064     3045.476     3632.074      402.580        2.059        0.354      183.214       16.010        0.008      343.237       19.204      866.176
07/26/2013  05:10:00     -140.407       18.360      -20.409       49.794       54.635       31.140     2479.489     2985.032      969.669        1.345        0.322      141.602       27.479        0.038      343.163       19.081      866.167
07/26/2013  05:11:00     -165.317        7.908      -17.330       35.395       32.676       23.695     1252.790     1067.725      561.473        1.529        0.144      165.506       22.047        0.018      343.177       19.105      866.156
07/26/2013  05:12:00     -180.739       27.450      -16.811       47.042       34.595       31.354     2212.980     1196.836      983.093        1.905        0.220      182.812       26.083        0.020      343.169       19.090      866.153
07/26/2013  05:13:00     -126.346       -6.912      -16.981       58.796       49.590       26.266     3456.947     2459.163      689.879        1.145        0.330      126.535       28.243        0.050      343.130       19.025      866.144
07/26/2013  05:14:00     -126.145       -6.272      -18.899       43.986       35.503       25.314     1934.731     1260.470      640.800        1.007        0.192      126.301       20.717        0.027      343.189       19.126      866.159
07/26/2013  05:15:00     -131.777      -11.991      -11.586       33.130       38.246       21.653     1097.590     1462.782      468.860        1.034        0.151      132.321       18.044        0.019      343.180       19.110      866.160
07/26/2013  05:16:00     -114.702       13.060      -16.602       46.520       63.417       21.726     2164.142     4021.692      472.011        1.013        0.333      115.443       24.152        0.044      343.178       19.106      866.160
07/26/2013  05:17:00      -71.664       -5.992       -2.420       53.844       43.820       31.820     2899.156     1920.215     1012.501        0.550        0.292       71.914       27.496        0.146      343.163       19.081      866.172
07/26/2013  05:18:00     -115.914       -7.133      -11.543       43.581       30.831       24.996     1899.318      950.555      624.808        0.855        0.174      116.134       22.591        0.038      343.160       19.077      866.172
07/26/2013  05:19:00     -114.009        4.274      -12.374       46.583       26.786       21.187     2169.944      717.509      448.890        0.825        0.167      114.089       23.761        0.043      343.184       19.117      866.168
07/26/2013  05:20:00     -115.695      -28.147       -9.498       50.104       41.648       30.723     2510.379     1734.583      943.903        0.973        0.259      119.069       27.405        0.053      343.144       19.048      866.162
07/26/2013  05:21:00     -148.476      -12.917      -21.483       71.750       28.542       24.389     5148.123      814.627      594.845        1.461        0.328      149.036       27.460        0.034      343.114       18.996      866.154
07/26/2013  05:22:00     -150.132      -23.293      -11.074       47.639       40.543       29.655     2269.436     1643.713      879.391        1.400        0.240      151.928       26.904        0.031      343.063       18.911      866.166
07/26/2013  05:23:00     -176.592       -7.207      -20.757       26.696       35.784       21.040      712.686     1280.498      442.689        1.705        0.122      176.739       15.200        0.007      343.079       18.938      866.154
07/26/2013  05:24:00     -154.899      -40.097      -14.439       30.853       29.209       18.309      951.878      853.186      335.208        1.397        0.107      160.005       14.607        0.008      343.097       18.969      866.151
07/26/2013  05:25:00     -171.600      -17.015      -14.020       33.530       40.796       22.864     1124.237     1664.330      522.751        1.662        0.166      172.441       13.750        0.006      343.088       18.953      866.153
07/26/2013  05:26:00     -168.608       -5.157      -25.399       23.776       26.012       18.260      565.276      676.618      333.424        1.534        0.079      168.687       13.020        0.006      343.095       18.965      866.142
07/26/2013  05:27:00     -128.128      -51.501       -4.291       44.096       43.358       24.951     1944.429     1879.887      622.531        1.177        0.222      138.091       22.972        0.028      343.093       18.962      866.139
07/26/2013  05:28:00     -140.066      -13.382      -14.697       35.173       41.452       18.838     1237.133     1718.255      354.887        1.166        0.166      140.703       13.131        0.009      343.117       19.004      866.149
07/26/2013  05:29:00     -155.149      -15.446      -19.881       21.104       27.344       13.561      445.389      747.678      183.908        1.304        0.069      155.916        9.117        0.003      343.107       18.985      866.158
07/26/2013  05:30:00     -100.067      -45.557      -15.218       43.292       35.486       18.632     1874.174     1259.287      347.158        0.790        0.174      109.949       22.865        0.043      343.127       19.020      866.158
07/26/2013  05:31:00      -70.105      -39.770        4.126       33.423       26.963       21.122     1117.098      727.015      446.131        0.440        0.115       80.600       16.295        0.041      343.081       18.941      866.168
07/26/2013  05:32:00     -127.413      -53.293       -9.677       32.388       23.464       17.062     1048.972      550.550      291.101        1.053        0.095      138.110       17.543        0.016      343.072       18.928      866.178
07/26/2013  05:33:00     -147.560      -65.897      -13.021       32.370       27.371       20.086     1047.790      749.160      403.441        1.424        0.110      161.606       17.699        0.012      343.072       18.927      866.185
07/26/2013  05:34:00     -138.431      -53.132      -13.591       34.629       21.442       17.380     1199.173      459.738      302.056        1.207        0.098      148.278       17.627        0.014      343.064       18.911      866.198
07/26/2013  05:35:00      -88.385      -40.585       -5.588       22.877       26.101       14.246      523.370      681.273      202.938        0.545        0.070       97.257        7.714        0.006      343.070       18.924      866.207
07/26/2013  05:36:00      -63.343      -17.769       -4.510       26.674       21.092       12.663      711.524      444.871      160.359        0.283        0.066       65.788       12.102        0.034      343.137       19.039      866.214
07/26/2013  05:37:00      -73.062      -19.945       -9.630       15.036       18.290        9.995      226.070      334.513       99.897        0.324        0.033       75.736        3.887        0.003      343.173       19.099      866.224
07/26/2013  05:38:00      -56.077      -48.656       -0.752       28.690       22.802       19.862      823.137      519.945      394.483        0.362        0.087       74.243       18.953        0.065      343.241       19.214      866.244
07/26/2013  05:39:00      -52.375      -39.042       -4.083       23.674       17.847       12.716      560.479      318.520      161.689        0.266        0.052       65.326        7.793        0.014      343.216       19.170      866.255
07/26/2013  05:40:00      -71.370      -60.477       -9.964       22.315       17.323       12.340      497.956      300.097      152.288        0.490        0.048       93.548       10.598        0.013      343.287       19.294      866.252
07/26/2013  05:41:00      -74.466      -56.095       -3.237       31.944       15.307       16.249     1020.398      234.297      264.027        0.511        0.076       93.230       17.724        0.036      343.261       19.248      866.256
07/26/2013  05:42:00      -70.187      -61.205        0.558       40.805       25.235       17.082     1665.017      636.785      291.781        0.563        0.130       93.125       12.029        0.017      343.220       19.178      866.246
07/26/2013  05:43:00     -102.815      -87.508       -5.927       31.798       38.405       22.677     1011.111     1474.962      514.246        1.063        0.150      135.014       18.828        0.019      343.164       19.084      866.242
07/26/2013  05:44:00      -79.523      -76.952        3.674       39.924       53.389       29.539     1593.899     2850.431      872.554        0.879        0.266      110.660       23.432        0.045      343.094       18.963      866.238
07/26/2013  05:45:00     -109.736     -119.357       -9.936       44.614       31.367       23.185     1990.430      983.877      537.544        1.495        0.176      162.136       21.795        0.018      343.145       19.051      866.248
07/26/2013  05:46:00      -92.250      -86.155       -3.848       40.615       38.718       28.817     1649.615     1499.083      830.396        0.996        0.199      126.225       24.947        0.039      343.126       19.019      866.258
07/26/2013  05:47:00      -87.364      -71.826        0.686       47.082       47.557       24.478     2216.711     2261.650      599.175        0.893        0.254      113.099       25.413        0.050      343.146       19.052      866.259
07/26/2013  05:48:00      -46.826      -53.387        7.178       48.757       34.228       20.781     2377.262     1171.539      431.850        0.454        0.199       71.013       23.534        0.110      343.141       19.042      866.264
07/26/2013  05:49:00      -11.166      -52.323       22.170       54.639       49.518       36.338     2985.412     2452.050     1320.480        0.505        0.338       53.501       37.051        0.480      343.163       19.081      866.255
07/26/2013  05:50:00      -26.252      -41.420       18.373       58.738       47.233       32.672     3450.160     2230.960     1067.450        0.474        0.337       49.039       33.602        0.470      343.153       19.065      866.246
07/26/2013  05:51:00      -91.531      -70.947        1.672       67.072       37.229       32.824     4498.625     1385.966     1077.429        1.019        0.348      115.807       37.789        0.106      343.144       19.048      866.235
07/26/2013  05:52:00      -80.089      -81.458       -1.155       47.998       34.559       24.830     2303.769     1194.319      616.527        0.858        0.206      114.235       22.538        0.039      343.123       19.014      866.225
07/26/2013  05:53:00      -70.639      -70.522        1.984       55.234       31.529       27.679     3050.750      994.102      766.149        0.739        0.241       99.816       27.577        0.076      343.108       18.989      866.228
07/26/2013  05:54:00      -71.426      -76.727        3.780       59.233       55.905       25.691     3508.540     3125.364      660.049        0.915        0.365      104.827       31.942        0.093      343.123       19.014      866.243
07/26/2013  05:55:00     -103.321      -76.662        3.298       70.260       48.207       32.530     4936.500     2323.903     1058.206        1.244        0.416      128.656       33.353        0.067      343.129       19.023      866.259
07/26/2013  05:56:00     -156.672      -89.023       -8.951       60.658       41.745       26.666     3679.430     1742.675      711.087        1.934        0.307      180.198       25.152        0.019      343.055       18.894      866.284
07/26/2013  05:57:00     -108.903      -92.650       -3.129       64.042       35.065       31.018     4101.325     1229.568      962.099        1.337        0.315      142.981       35.926        0.063      343.063       18.911      866.302
07/26/2013  05:58:00      -95.680      -86.264       -0.047       46.565       42.572       29.641     2168.312     1812.401      878.589        1.073        0.243      128.826       28.361        0.048      343.069       18.922      866.302
07/26/2013  05:59:00      -84.340      -64.799        1.079       45.854       35.122       26.614     2102.621     1233.530      708.304        0.768        0.202      106.358       26.409        0.062      343.072       18.925      866.297
07/26/2013  06:00:00      -74.610      -76.623       -1.023       23.122       23.515       20.677      534.633      552.954      427.523        0.648        0.076      106.948       12.686        0.014      343.119       19.006      866.293
07/26/2013  06:01:00      -58.874      -52.227      -10.535       32.455       27.956       16.898     1053.347      781.511      285.553        0.421        0.106       78.701       17.949        0.052      343.200       19.144      866.290
07/26/2013  06:02:00      -80.309      -54.859       -8.203       17.828       17.614       12.219      317.842      310.241      149.311        0.515        0.039       97.258        3.321        0.001      343.147       19.055      866.282
07/26/2013  06:03:00      -45.596      -37.186        1.901       35.147       27.467       15.491     1235.291      754.434      239.964        0.285        0.111       58.837       14.650        0.062      343.191       19.130      866.277
07/26/2013  06:04:00      -89.260      -53.504       -4.833       25.666       23.533       16.270      658.764      553.824      264.711        0.617        0.074      104.068       11.646        0.013      343.243       19.218      866.277
07/26/2013  06:05:00      -96.399      -34.001      -12.351       13.927       11.956       10.610      193.954      142.935      112.562        0.553        0.022      102.219        5.648        0.003      343.254       19.237      866.291
07/26/2013  06:06:00      -92.313      -34.001       -5.897       13.213       12.294        9.897      174.575      151.147       97.957        0.507        0.021       98.376        4.561        0.002      343.178       19.107      866.306
07/26/2013  06:07:00     -101.508      -32.938       -8.626       23.108       12.971        9.896      533.989      168.245       97.937        0.613        0.040      106.718        8.568        0.006      343.148       19.056      866.319
07/26/2013  06:08:00     -124.964      -32.143      -12.851       22.528       19.041       13.709      507.530      362.543      187.941        0.894        0.053      129.032        3.649        0.001      343.146       19.053      866.330
07/26/2013  06:09:00     -110.022      -19.757       -7.150       18.905       18.018       12.916      357.398      324.647      166.825        0.670        0.042      111.782       11.622        0.011      343.088       18.953      866.332
07/26/2013  06:10:00      -96.124      -52.378       -2.504       33.393       29.817       16.587     1115.122      889.044      275.133        0.713        0.114      109.468       20.006        0.033      343.090       18.959      866.331
07/26/2013  06:11:00      -75.017      -62.341       -6.189       44.258       20.999       15.303     1958.767      440.943      234.195        0.609        0.132       97.539       11.399        0.014      343.147       19.054      866.333
07/26/2013  06:12:00     -102.417      -59.333       -5.283       24.172       23.108       15.786      584.269      533.968      249.204        0.770        0.068      118.362       10.304        0.008      343.111       18.992      866.330
07/26/2013  06:13:00      -62.854      -55.095       -3.491       49.930       24.460       16.731     2492.984      598.277      279.940        0.518        0.169       83.583       23.336        0.078      343.104       18.980      866.333
07/26/2013  06:14:00      -94.806      -89.277       -7.364       32.515       21.800       21.304     1057.235      475.219      453.841        0.950        0.099      130.225       21.093        0.026      343.090       18.957      866.346
07/26/2013  06:15:00      -49.744      -56.789        2.553       41.608       26.372       24.173     1731.209      695.503      584.350        0.436        0.151       75.495       23.878        0.100      343.057       18.900      866.359
07/26/2013  06:16:00      -91.771      -72.382       -2.028       32.386       29.476       16.809     1048.843      868.820      282.536        0.793        0.110      116.881       20.049        0.029      343.069       18.921      866.383
07/26/2013  06:17:00     -102.037      -54.334       -5.800       22.325       19.928       16.064      498.414      397.130      258.058        0.728        0.058      115.602        8.162        0.005      343.051       18.892      866.399
07/26/2013  06:18:00     -130.126      -21.381      -10.746       29.690       24.392       16.041      881.514      594.972      257.321        0.962        0.087      131.871       15.079        0.013      343.081       18.941      866.419
07/26/2013  06:19:00     -118.608      -36.621      -11.065       32.439       24.038       16.816     1052.262      577.825      282.767        0.872        0.096      124.133       16.389        0.017      343.042       18.877      866.435
07/26/2013  06:20:00     -120.797      -44.984      -15.657       40.595       23.896       19.550     1647.940      571.032      382.204        0.973        0.130      128.901       20.294        0.025      343.066       18.914      866.447
07/26/2013  06:21:00     -129.177      -33.246      -13.308       21.718       21.080       17.009      471.689      444.348      289.294        0.959        0.060      133.387       13.870        0.011      343.060       18.907      866.448
07/26/2013  06:22:00     -138.436      -13.771      -10.252       47.110       34.418       23.046     2219.372     1184.609      531.114        1.170        0.197      139.119       22.881        0.027      343.032       18.859      866.444
07/26/2013  06:23:00     -150.573      -68.454       -1.210       41.605       31.575       21.136     1731.012      997.006      446.728        1.527        0.159      165.403       16.918        0.010      342.942       18.705      866.440
07/26/2013  06:24:00     -142.230      -50.619       -1.082       42.871       23.210       26.095     1837.950      538.699      680.960        1.292        0.153      150.969       27.186        0.032      342.952       18.723      866.448
07/26/2013  06:25:00     -143.392      -42.110        1.674       31.618       31.424       20.835      999.678      987.492      434.094        1.238        0.121      149.447       17.042        0.013      342.949       18.716      866.447
07/26/2013  06:26:00      -50.531      -12.208       14.520       50.681       28.286       22.771     2568.547      800.071      518.499        0.340        0.194       51.985       21.361        0.169      342.999       18.803      866.453
07/26/2013  06:27:00      -32.224      -45.382        1.461       27.186       21.000       19.094      739.091      441.007      364.566        0.232        0.077       55.658       13.917        0.063      343.061       18.909      866.447
07/26/2013  06:28:00      -91.250      -72.198       -4.064       51.807       37.083       23.662     2683.933     1375.117      559.911        0.909        0.231      116.357       26.394        0.051      343.092       18.962      866.442
07/26/2013  06:29:00     -120.615      -98.530       -6.614       46.330       42.513       24.749     2146.467     1807.374      612.504        1.443        0.228      155.744       19.671        0.016      343.093       18.963      866.447
07/26/2013  06:30:00      -97.349      -61.347       -6.542       38.475       21.611       18.681     1480.296      467.019      348.995        0.779        0.115      115.067       16.365        0.020      343.064       18.914      866.456
07/26/2013  06:31:00      -80.804      -32.541        4.183       22.825       25.685       12.899      520.961      659.722      166.380        0.448        0.067       87.110        9.551        0.012      343.068       18.920      866.466
07/26/2013  06:32:00      -72.669      -23.635        0.614       30.795       15.098       12.115      948.326      227.937      146.784        0.358        0.066       76.415       11.360        0.022      343.065       18.914      866.461
07/26/2013  06:33:00       -4.766      -31.578        5.716       21.742       15.367       17.312      472.712      236.133      299.697        0.103        0.050       31.936       15.132        0.224      343.169       19.092      866.466
07/26/2013  06:34:00      -48.300      -45.315       -0.499       30.958       23.482       15.904      958.403      551.399      252.941        0.307        0.088       66.230       15.322        0.054      343.162       19.079      866.469
07/26/2013  06:35:00      -37.583      -46.499        0.441       40.722       23.892       23.403     1658.287      570.824      547.705        0.318        0.139       59.788       25.748        0.185      343.189       19.125      866.463
07/26/2013  06:36:00      -47.275      -50.019       -3.236       33.219       24.296       15.907     1103.496      590.302      253.035        0.335        0.097       68.825       20.001        0.084      343.162       19.082      866.466
07/26/2013  06:37:00      -84.224      -46.273      -13.233       24.933       20.954       15.242      621.631      439.080      232.329        0.535        0.065       96.099       14.778        0.024      343.157       19.071      866.466
07/26/2013  06:38:00     -103.037      -28.444      -16.576       12.549       13.464       11.339      157.479      181.289      128.571        0.608        0.023      106.891        6.545        0.004      343.102       18.977      866.461
07/26/2013  06:39:00     -131.435      -20.582      -21.220       20.986       21.643       12.601      440.406      468.399      158.795        0.961        0.053      133.037        8.328        0.004      343.151       19.060      866.473
07/26/2013  06:40:00      -99.278      -50.160       -0.983       27.106       18.919       14.141      734.723      357.924      199.957        0.683        0.065      111.230        8.515        0.006      343.153       19.066      866.474
07/26/2013  06:41:00     -129.307      -51.667       -5.331       15.632       14.506       13.617      244.355      210.411      185.423        1.003        0.032      139.247        8.368        0.004      343.124       19.015      866.469
07/26/2013  06:42:00     -110.691      -19.979        0.474       36.209       25.600       16.857     1311.099      655.378      284.155        0.745        0.113      112.479       20.111        0.032      343.140       19.042      866.481
07/26/2013  06:43:00     -120.934      -31.896       -5.829       22.797       15.198       17.088      519.713      230.976      291.985        0.836        0.052      125.069       16.526        0.017      343.127       19.021      866.480
07/26/2013  06:44:00     -116.322      -29.364       -3.937       21.869       18.929        8.897      478.272      358.289       79.155        0.766        0.046      119.971        9.289        0.006      343.145       19.051      866.483
07/26/2013  06:45:00     -122.017      -47.447      -10.624       10.992       11.164       10.620      120.826      124.636      112.783        0.881        0.018      130.917        5.012        0.001      343.108       18.986      866.483
07/26/2013  06:46:00     -120.055      -39.457      -15.565       18.300       12.576       16.966      334.879      158.158      287.856        0.850        0.039      126.373       12.565        0.010      343.136       19.035      866.479
07/26/2013  06:47:00      -98.091      -41.104      -12.214       23.265       19.584       13.889      541.265      383.530      192.893        0.629        0.056      106.355       11.470        0.012      343.207       19.156      866.483
07/26/2013  06:48:00      -91.017      -26.043      -13.226       25.432       22.994       16.802      646.766      528.727      282.316        0.530        0.073       94.669       12.025        0.016      343.305       19.324      866.481
07/26/2013  06:49:00      -52.544      -10.765        0.672       26.588       25.559       20.955      706.916      653.266      439.107        0.234        0.090       53.635       14.477        0.073      343.319       19.347      866.486
07/26/2013  06:50:00      -58.953      -46.156       -9.816       19.645       11.138       10.568      385.944      124.060      111.673        0.316        0.031       74.872        5.615        0.006      343.218       19.175      866.480
07/26/2013  06:51:00      -50.525      -26.669       -1.394       14.678       13.960        8.405      215.445      194.885       70.646        0.187        0.024       57.131        7.493        0.017      343.245       19.220      866.485
07/26/2013  06:52:00      -61.729      -28.639       -4.346       22.789       11.672        7.662      519.333      136.225       58.701        0.268        0.036       68.049        4.037        0.004      343.271       19.265      866.489
07/26/2013  06:53:00      -67.533      -34.726       -2.904       17.374       14.978       11.546      301.847      224.343      133.319        0.322        0.033       75.938        9.525        0.016      343.295       19.306      866.495
07/26/2013  06:54:00      -34.385      -41.037       -7.362       20.124       16.223        9.092      404.964      263.195       82.660        0.184        0.038       53.538        8.924        0.028      343.363       19.421      866.498
07/26/2013  06:55:00      -43.581      -50.440       -2.837       25.711       22.735       14.949      661.038      516.897      223.475        0.293        0.070       66.659       11.722        0.031      343.407       19.497      866.509
07/26/2013  06:56:00      -59.529      -69.990       -6.361       28.539       18.010       17.362      814.496      324.343      301.431        0.496        0.072       91.882       17.235        0.035      343.404       19.491      866.513
07/26/2013  06:57:00      -67.506      -80.795      -13.836       14.659       17.633        8.899      214.877      310.908       79.187        0.594        0.030      105.285        3.453        0.001      343.350       19.399      866.521
07/26/2013  06:58:00      -56.017      -75.683        1.365       24.196       29.688       15.190      585.449      881.382      230.728        0.528        0.085       94.159       16.588        0.031      343.381       19.452      866.523
07/26/2013  06:59:00      -28.057      -54.218        0.935       33.640       27.029       15.392     1131.655      730.577      236.912        0.291        0.105       61.048       17.310        0.080      343.535       19.714      866.533
07/26/2013  07:00:00        5.069      -43.919       16.125       22.274       36.226       15.802      496.130     1312.355      249.715        0.214        0.103       44.211       17.486        0.156      343.677       19.957      866.556
07/26/2013  07:01:00      -38.418      -67.417       -0.201       25.048       29.179       12.796      627.385      851.385      163.748        0.383        0.082       77.595        8.018        0.011      343.491       19.639      866.568
07/26/2013  07:02:00      -49.790      -45.747       -0.847       20.894       30.018       19.905      436.563      901.056      396.210        0.315        0.087       67.616       16.891        0.062      343.549       19.738      866.575
07/26/2013  07:03:00        2.545      -29.545       11.339       25.036       18.621       18.070      626.781      346.732      326.529        0.115        0.065       29.655       13.860        0.218      343.703       20.002      866.588
07/26/2013  07:04:00      -45.985      -56.015        2.719       34.187       24.740       17.778     1168.767      612.091      316.061        0.368        0.105       72.473       15.056        0.043      343.557       19.751      866.597
07/26/2013  07:05:00      -58.432      -47.635       -2.352       33.177       22.774       13.365     1100.692      518.664      178.636        0.374        0.090       75.388       15.459        0.042      343.592       19.811      866.610
07/26/2013  07:06:00      -58.873      -43.680        0.341       20.964       25.195       13.995      439.488      634.808      195.854        0.332        0.064       73.308       11.878        0.026      343.569       19.771      866.639
07/26/2013  07:07:00      -24.161       -9.079        9.231       21.076       22.569       24.107      444.184      509.355      581.147        0.114        0.077       25.811       16.702        0.419      343.829       20.216      866.659
07/26/2013  07:08:00      -10.197      -12.843        8.627       20.335       15.224       18.932      413.495      231.784      358.411        0.067        0.050       16.399       11.956        0.532      343.987       20.487      866.683
07/26/2013  07:09:00      -46.779      -40.127       -0.031       23.176       26.430       16.718      537.143      698.546      279.505        0.266        0.076       61.632       14.558        0.056      343.709       20.011      866.705
07/26/2013  07:10:00      -52.996      -28.558        2.798       28.410       28.044       12.612      807.121      786.480      159.051        0.269        0.088       60.201       14.674        0.059      343.742       20.068      866.716
07/26/2013  07:11:00      -55.537      -19.553        7.989       40.685       25.782       21.260     1655.269      664.737      451.982        0.315        0.139       58.879       23.947        0.165      343.924       20.379      866.730
07/26/2013  07:12:00      -76.406        6.372       10.481       36.690       26.497       25.906     1346.127      702.109      671.129        0.435        0.136       76.671       21.697        0.080      343.777       20.127      866.745
07/26/2013  07:13:00      -40.918       13.709        3.306       32.552       23.267       20.828     1059.630      541.331      433.800        0.195        0.102       43.153       19.703        0.208      343.829       20.216      866.761
07/26/2013  07:14:00      -49.070        3.868        7.798       28.814       15.813       16.892      830.225      250.037      285.355        0.192        0.068       49.222       15.771        0.103      343.922       20.375      866.779
07/26/2013  07:15:00      -52.431      -23.336       -0.213       28.434       27.210       13.030      808.485      740.400      169.781        0.251        0.086       57.389       13.845        0.058      343.798       20.163      866.786
07/26/2013  07:16:00      -48.654      -35.696      -10.933       31.215       48.707       15.972      974.383     2372.382      255.103        0.368        0.180       60.345       16.493        0.075      343.724       20.037      866.789
07/26/2013  07:17:00      -39.437      -31.143        6.921       33.494       34.033       21.424     1121.825     1158.216      458.973        0.266        0.137       50.251       17.830        0.126      343.931       20.390      866.783
07/26/2013  07:18:00      -79.785      -29.479       -4.302       39.192       43.958       28.497     1535.984     1932.327      812.103        0.577        0.214       85.057       24.951        0.086      343.721       20.031      866.764
07/26/2013  07:19:00      -39.279      -21.369        1.780       37.269       30.615       19.233     1388.987      937.279      369.905        0.235        0.135       44.715       19.110        0.183      343.915       20.363      866.738
07/26/2013  07:20:00      -49.233      -21.218        0.601       15.133       12.760       11.176      229.022      162.817      124.907        0.170        0.026       53.610        4.573        0.007      343.785       20.144      866.722
07/26/2013  07:21:00      -31.859      -38.624        3.102       27.103       36.591       16.147      734.566     1338.937      260.740        0.242        0.117       50.068       18.446        0.136      343.864       20.274      866.709
07/26/2013  07:22:00      -24.263      -29.030        7.682       18.411       22.496       13.545      338.959      506.065      183.456        0.126        0.051       37.834        9.853        0.068      343.894       20.327      866.709
07/26/2013  07:23:00      -34.965      -10.157       -0.944       13.498       12.794        9.249      182.189      163.691       85.538        0.088        0.022       36.411        4.446        0.015      343.839       20.234      866.714
07/26/2013  07:24:00      -10.894       -9.823        0.993        8.270        9.436        7.834       68.397       89.032       61.377        0.022        0.011       14.669        6.702        0.209      344.092       20.667      866.723
07/26/2013  07:25:00      -14.657        6.289       10.627       19.888       11.780       16.654      395.517      138.775      277.356        0.059        0.041       15.949       15.983        1.004      344.380       21.158      866.744
07/26/2013  07:26:00      -30.377       18.164       -7.969       11.501       15.546       10.093      132.268      241.692      101.864        0.090        0.024       35.393        7.392        0.044      343.948       20.420      866.766
07/26/2013  07:27:00      -26.618        7.613       -6.418       12.660        9.613        9.807      160.283       92.408       96.172        0.058        0.017       27.685        9.030        0.106      344.035       20.568      866.779
07/26/2013  07:28:00      -35.063        7.048      -13.344       23.856       15.773       16.787      569.091      248.781      281.819        0.128        0.055       35.764       11.255        0.099      343.886       20.315      866.794
07/26/2013  07:29:00      -21.410        1.055       -0.642       10.966       12.590       12.041      120.252      158.501      144.997        0.044        0.021       21.436        8.280        0.149      343.970       20.457      866.802
07/26/2013  07:30:00      -30.350        7.188       -2.667        8.595        5.942        6.517       73.876       35.305       42.476        0.057        0.008       31.190        3.467        0.012      343.918       20.370      866.803
07/26/2013  07:31:00      -10.245       -1.538       -6.395       12.397        9.228        7.698      153.676       85.165       59.257        0.022        0.015       10.360        5.496        0.281      344.072       20.630      866.808
07/26/2013  07:32:00      -11.775       21.405       14.126       20.970       27.035       22.793      439.730      730.879      519.514        0.124        0.085       24.429        7.130        0.085      344.434       21.249      866.816
07/26/2013  07:33:00       24.045       -3.446       19.412       20.931       28.465       23.127      438.110      810.275      534.839        0.137        0.089       24.291       18.169        0.560      344.231       20.903      866.814
07/26/2013  07:34:00       30.458       28.142       -5.668       18.828       18.085       14.657      354.483      327.067      214.840        0.132        0.045       41.469       11.060        0.071      344.018       20.539      866.821
07/26/2013  07:35:00       22.470        0.759        3.602       15.292       15.429       19.395      233.841      238.057      376.157        0.068        0.042       22.483       11.994        0.285      344.570       21.482      866.821
07/26/2013  07:36:00      -14.560       -1.407       10.268       12.768       11.769       12.476      163.013      138.513      155.643        0.039        0.023       14.627        6.729        0.212      344.551       21.449      866.823
07/26/2013  07:37:00       -7.486      -11.365       17.494       13.039       16.895       10.954      170.025      285.447      119.997        0.053        0.029       13.609        8.319        0.374      344.712       21.726      866.831
07/26/2013  07:38:00       -6.133      -49.717        7.491       12.551       11.348       15.792      157.534      128.778      249.376        0.155        0.027       50.094        6.823        0.019      344.283       20.991      866.835
07/26/2013  07:39:00      -21.783      -25.744        8.076       17.592       20.482       19.415      309.483      419.496      376.961        0.115        0.055       33.723       14.278        0.179      344.414       21.216      866.835
07/26/2013  07:40:00       -7.535        8.389       23.859       14.188        9.614        9.105      201.304       92.438       82.898        0.054        0.019       11.277        5.796        0.264      344.941       22.118      866.835
07/26/2013  07:41:00        1.069       15.441       24.753       23.323       13.748       14.607      543.948      189.003      213.353        0.090        0.047       15.478        7.715        0.248      344.794       21.865      866.828
07/26/2013  07:42:00       25.579       51.750       -3.663       18.465       20.391       13.788      340.940      415.787      190.098        0.215        0.047       57.726        9.255        0.026      344.456       21.287      866.811
07/26/2013  07:43:00       44.054       55.558        7.894       18.408       16.498       20.325      338.872      272.189      413.095        0.306        0.051       70.905        6.453        0.008      344.419       21.225      866.803
07/26/2013  07:44:00      102.581       60.822       25.632       28.556       18.979       22.479      815.464      360.188      505.321        0.828        0.084      119.256       11.503        0.009      344.348       21.103      866.788
07/26/2013  07:45:00       97.563       51.151       25.841       24.733       21.765       27.053      611.724      473.729      731.855        0.731        0.091      110.159       15.104        0.019      344.255       20.943      866.784
07/26/2013  07:46:00       91.212       71.557       19.061       31.607       21.914       27.310      999.033      480.241      745.843        0.801        0.111      115.931       16.662        0.021      344.253       20.939      866.794
07/26/2013  07:47:00      111.541       79.705       27.750       39.268       26.214       30.820     1541.957      687.188      949.880        1.137        0.159      137.092       19.123        0.019      344.437       21.255      866.789
07/26/2013  07:48:00       70.182       65.229       11.265       32.307       27.540       32.039     1043.721      758.477     1026.468        0.607        0.141       95.815       19.379        0.041      344.475       21.320      866.797
07/26/2013  07:49:00       66.292       58.367       43.334       40.634       31.268       26.780     1651.111      977.678      717.150        0.651        0.167       88.325       22.850        0.067      344.653       21.625      866.812
07/26/2013  07:50:00       53.435       62.335       37.510       56.495       54.305       31.491     3191.705     2949.030      991.701        0.764        0.357       82.103       31.912        0.151      344.847       21.958      866.821
07/26/2013  07:51:00      164.381       71.604       23.315       46.258       32.165       40.952     2139.819     1034.577     1677.094        1.877        0.243      179.300       29.608        0.027      344.423       21.229      866.830
07/26/2013  07:52:00      147.213       70.106       22.584       46.829       32.561       35.742     2192.952     1060.225     1277.506        1.581        0.227      163.054       21.983        0.018      344.443       21.264      866.835
07/26/2013  07:53:00      128.686       56.733       26.601       38.004       41.627       35.710     1444.298     1732.846     1275.194        1.247        0.223      140.637       27.233        0.037      344.433       21.247      866.849
07/26/2013  07:54:00      145.315       81.663       17.067       51.734       49.662       38.904     2676.365     2466.284     1513.517        1.737        0.333      166.690       32.417        0.038      344.447       21.271      866.857
07/26/2013  07:55:00      108.029       73.880        3.515       48.831       36.761       29.434     2384.428     1351.344      866.340        1.087        0.230      130.876       22.315        0.029      344.541       21.434      866.869
07/26/2013  07:56:00      145.292       80.686       24.309       66.436       51.465       38.347     4413.706     2648.606     1470.500        1.837        0.427      166.192       32.339        0.038      344.542       21.433      866.878
07/26/2013  07:57:00       95.821       54.255       19.573       42.086       32.599       40.790     1771.207     1062.698     1663.785        0.850        0.225      110.115       25.144        0.052      344.637       21.598      866.894
07/26/2013  07:58:00      129.467       77.248        8.004       32.281       31.281       29.181     1042.060      978.489      851.526        1.283        0.144      150.761       10.464        0.005      344.608       21.548      866.897
07/26/2013  07:59:00      112.773       73.505       10.968       51.238       40.629       33.452     2625.365     1650.747     1119.015        1.182        0.270      134.613       14.251        0.011      344.568       21.478      866.905
07/26/2013  08:00:00      113.898       56.949        5.913       42.626       29.458       31.942     1816.954      867.753     1020.320        0.998        0.185      127.341       22.994        0.033      344.661       21.638      866.899
07/26/2013  08:01:00      105.796       74.010       13.947       47.744       36.725       35.230     2279.469     1348.706     1241.132        1.087        0.243      129.114       22.780        0.031      344.703       21.709      866.905
07/26/2013  08:02:00      109.389       63.895       -1.707       34.633       35.271       19.740     1199.431     1244.018      389.661        0.944        0.142      126.683       10.993        0.008      344.536       21.423      866.919
07/26/2013  08:03:00       78.671       33.183       -3.817       27.506       19.510       18.081      756.583      380.633      326.925        0.438        0.073       85.383        9.962        0.014      344.612       21.554      866.919
